Time;durP1;ratioP1;P1;durP2;ratioP2;P2;SDS_P1;SDS_P2;PMS_P1;PMS_P2;Temp;Humidity;BMP_temperature;BMP_pressure;BME280_temperature;BME280_humidity;BME280_pressure;Samples;Min_cycle;Max_cycle;Signal;HPM_P1;HPM_P2
2023/05/05 00:02:23;;;;;;;6.10;3.40;;;;;;;9.89;66.20;101061.02;108486;1253;59940;-69
2023/05/05 00:04:49;;;;;;;5.60;3.30;;;;;;;9.86;66.36;101059.02;108552;1253;74972;-68
2023/05/05 00:07:16;;;;;;;6.00;3.40;;;;;;;9.84;66.50;101056.43;107986;1252;70908;-68
2023/05/05 00:09:43;;;;;;;7.80;4.00;;;;;;;9.81;66.72;101059.73;108506;1253;71328;-68
2023/05/05 00:12:09;;;;;;;10.30;3.60;;;;;;;9.77;66.79;101059.59;108432;1253;61112;-67
2023/05/05 00:14:36;;;;;;;6.70;3.70;;;;;;;9.76;67.13;101065.42;108559;1252;58870;-68
2023/05/05 00:17:03;;;;;;;7.10;3.90;;;;;;;9.74;66.99;101063.16;108126;1253;74372;-67
2023/05/05 00:19:30;;;;;;;6.00;3.90;;;;;;;9.70;67.11;101061.03;108127;1253;71205;-69
2023/05/05 00:21:57;;;;;;;10.80;3.90;;;;;;;9.68;67.30;101057.17;108645;1252;70138;-69
2023/05/05 00:24:23;;;;;;;6.00;3.80;;;;;;;9.66;67.24;101059.55;108512;1252;59913;-70
2023/05/05 00:26:50;;;;;;;6.00;3.70;;;;;;;9.64;67.72;101055.37;108494;1257;59775;-68
2023/05/05 00:29:16;;;;;;;8.50;4.40;;;;;;;9.62;67.85;101053.10;108080;1253;73447;-69
2023/05/05 00:31:43;;;;;;;9.80;4.90;;;;;;;9.60;68.00;101051.95;108555;1253;70063;-70
2023/05/05 00:34:10;;;;;;;8.40;4.10;;;;;;;9.57;68.00;101051.81;108041;1252;317493;-68
2023/05/05 00:36:37;;;;;;;5.40;3.90;;;;;;;9.55;68.23;101046.20;108268;1254;61311;-69
2023/05/05 00:39:04;;;;;;;7.10;3.90;;;;;;;9.53;68.61;101044.48;108073;1253;61122;-68
2023/05/05 00:41:30;;;;;;;8.20;4.30;;;;;;;9.51;68.93;101043.49;108634;1252;73117;-68
2023/05/05 00:43:57;;;;;;;6.80;4.20;;;;;;;9.48;69.01;101042.89;108338;1253;71407;-68
2023/05/05 00:46:26;;;;;;;8.90;4.20;;;;;;;9.45;69.00;101039.70;107929;1254;72369;-69
2023/05/05 00:48:54;;;;;;;6.00;4.10;;;;;;;9.43;69.11;101035.09;108528;1253;61537;-67
2023/05/05 00:51:20;;;;;;;5.20;3.80;;;;;;;9.40;69.35;101035.38;108025;1252;59219;-68
2023/05/05 00:53:47;;;;;;;7.10;3.90;;;;;;;9.37;69.50;101035.00;108384;1254;74668;-69
2023/05/05 00:56:18;;;;;;;6.40;4.10;;;;;;;9.35;69.51;101034.80;108318;1253;71733;-67
2023/05/05 00:58:45;;;;;;;10.00;4.30;;;;;;;9.33;69.97;101029.23;108363;1253;71586;-68
2023/05/05 01:01:14;;;;;;;7.10;4.60;;;;;;;9.30;69.91;101023.92;108098;1252;61263;-71
2023/05/05 01:03:41;;;;;;;6.70;4.40;;;;;;;9.27;70.12;101024.95;108625;1253;59708;-68
2023/05/05 01:06:25;;;;;;;8.50;4.20;;;;;;;9.23;70.48;101020.11;108534;1254;73538;-68
2023/05/05 01:09:32;;;;;;;9.00;4.50;;;;;;;9.18;70.39;101016.82;108105;1253;69254;-69
2023/05/05 01:12:10;;;;;;;7.40;4.40;;;;;;;9.13;70.74;101013.82;108318;1252;73053;-68
2023/05/05 01:14:46;;;;;;;7.70;4.70;;;;;;;9.11;70.57;101010.38;108455;1253;59550;-69
2023/05/05 01:17:18;;;;;;;8.10;5.00;;;;;;;9.08;71.16;101008.02;108656;1252;61353;-67
2023/05/05 01:20:19;;;;;;;6.70;4.40;;;;;;;9.05;71.02;101003.21;108198;1254;72214;-70
2023/05/05 01:22:52;;;;;;;8.10;4.60;;;;;;;9.01;71.11;101004.11;108323;1252;69971;-68
2023/05/05 01:25:55;;;;;;;5.90;4.50;;;;;;;8.98;71.52;101001.75;108568;1253;71795;-69
2023/05/05 01:28:38;;;;;;;8.20;4.60;;;;;;;8.94;71.53;101002.13;108200;1253;60830;-68
2023/05/05 01:31:25;;;;;;;7.10;4.60;;;;;;;8.92;71.77;101000.09;108486;1253;61231;-69
2023/05/05 01:34:00;;;;;;;6.80;4.50;;;;;;;8.89;71.78;100997.38;108519;1253;73408;-69
2023/05/05 01:36:34;;;;;;;6.20;4.50;;;;;;;8.85;72.05;100998.14;108376;1255;70933;-69
2023/05/05 01:39:02;;;;;;;6.30;4.40;;;;;;;8.81;72.19;100996.43;108237;1253;71466;-68
2023/05/05 01:41:45;;;;;;;6.50;4.50;;;;;;;8.76;72.51;100994.97;108092;1257;61268;-69
2023/05/05 01:44:15;;;;;;;7.40;4.60;;;;;;;8.71;72.70;100995.34;108143;1253;59115;-68
2023/05/05 01:46:42;;;;;;;7.40;5.00;;;;;;;8.67;72.98;100996.29;107996;1254;74392;-68
2023/05/05 01:49:10;;;;;;;6.50;4.50;;;;;;;8.64;73.00;100999.27;108409;1253;71535;-68
2023/05/05 01:51:38;;;;;;;8.00;4.80;;;;;;;8.61;73.10;101004.19;108759;1252;71743;-69
2023/05/05 01:54:07;;;;;;;6.60;4.60;;;;;;;8.56;73.53;101002.61;108058;1259;61201;-68
2023/05/05 01:56:35;;;;;;;9.20;5.00;;;;;;;8.53;73.51;100997.65;108430;1252;61129;-69
2023/05/05 01:59:03;;;;;;;7.50;4.50;;;;;;;8.53;73.63;100994.82;108613;1253;75033;-68
2023/05/05 02:01:30;;;;;;;10.50;5.20;;;;;;;8.55;74.04;100992.55;108284;1253;70922;-69
2023/05/05 02:03:58;;;;;;;9.20;4.90;;;;;;;8.58;74.19;100984.34;108256;1252;73094;-69
2023/05/05 02:06:31;;;;;;;8.30;4.80;;;;;;;8.59;74.64;100981.38;108637;1253;61132;-69
2023/05/05 02:08:58;;;;;;;10.30;4.90;;;;;;;8.61;74.55;100979.83;108379;1254;61247;-68
2023/05/05 02:11:27;;;;;;;7.40;4.50;;;;;;;8.63;74.64;100979.84;108131;1252;73496;-68
2023/05/05 02:13:54;;;;;;;8.50;4.50;;;;;;;8.65;74.88;100982.06;107967;1257;71050;-69
2023/05/05 02:16:23;;;;;;;9.00;4.90;;;;;;;8.66;75.17;100978.18;108503;1252;72624;-68
2023/05/05 02:18:51;;;;;;;7.10;4.80;;;;;;;8.68;75.16;100982.06;108783;1253;61179;-69
2023/05/05 02:21:18;;;;;;;9.00;4.50;;;;;;;8.70;75.63;100981.38;107972;1253;60048;-69
2023/05/05 02:23:50;;;;;;;8.00;4.30;;;;;;;8.71;75.93;100983.53;108298;1253;74727;-67
2023/05/05 02:26:22;;;;;;;8.30;4.50;;;;;;;8.73;76.17;100983.81;108509;1257;70202;-68
2023/05/05 02:29:01;;;;;;;9.60;4.60;;;;;;;8.74;75.95;100983.19;108416;1253;70835;-69
2023/05/05 02:31:30;;;;;;;7.90;4.70;;;;;;;8.76;76.04;100979.51;108113;1254;61183;-69
2023/05/05 02:34:00;;;;;;;9.60;4.90;;;;;;;8.77;76.20;100980.33;108085;1252;59548;-68
2023/05/05 02:36:31;;;;;;;9.90;4.40;;;;;;;8.76;76.53;100975.77;108765;1253;74560;-69
2023/05/05 02:39:06;;;;;;;8.30;4.30;;;;;;;8.77;76.52;100975.37;108391;1253;69487;-69
2023/05/05 02:41:37;;;;;;;7.40;4.50;;;;;;;8.77;76.46;100975.13;108197;1253;71209;-70
2023/05/05 02:44:05;;;;;;;6.80;4.40;;;;;;;8.77;76.92;100970.41;108305;1252;60758;-68
2023/05/05 02:46:32;;;;;;;8.80;4.80;;;;;;;8.77;76.98;100968.48;108684;1253;59227;-68
2023/05/05 02:48:59;;;;;;;11.00;4.80;;;;;;;8.76;77.37;100969.12;108402;1253;73156;-68
2023/05/05 02:51:26;;;;;;;9.40;4.90;;;;;;;8.76;77.05;100970.86;108422;1253;72684;-69
2023/05/05 02:53:53;;;;;;;7.50;4.10;;;;;;;8.75;77.38;100968.65;108655;1253;72418;-68
2023/05/05 02:56:29;;;;;;;9.60;4.80;;;;;;;8.76;77.46;100969.26;108286;1252;61267;-71
2023/05/05 02:59:18;;;;;;;7.30;4.40;;;;;;;8.77;77.43;100968.13;108294;1253;59082;-69
2023/05/05 03:02:10;;;;;;;8.30;5.40;;;;;;;8.77;77.54;100961.98;108242;1253;73997;-68
2023/05/05 03:04:41;;;;;;;6.20;4.10;;;;;;;8.76;78.03;100965.91;108268;1252;70310;-69
2023/05/05 03:07:14;;;;;;;6.90;4.30;;;;;;;8.74;77.94;100965.97;108433;1257;73003;-69
2023/05/05 03:09:48;;;;;;;7.60;4.80;;;;;;;8.71;78.01;100970.14;108234;1252;61971;-69
2023/05/05 03:12:20;;;;;;;7.30;4.50;;;;;;;8.68;78.02;100968.80;109000;1254;61637;-69
2023/05/05 03:14:53;;;;;;;8.40;4.40;;;;;;;8.65;78.58;100965.32;107872;1254;73483;-70
2023/05/05 03:17:22;;;;;;;7.10;4.40;;;;;;;8.62;78.69;100959.27;108200;1252;70289;-69
2023/05/05 03:19:50;;;;;;;7.10;4.20;;;;;;;8.60;78.79;100961.25;108425;1254;71226;-68
2023/05/05 03:22:17;;;;;;;8.50;4.40;;;;;;;8.56;78.99;100961.79;108047;1252;63149;-68
2023/05/05 03:24:49;;;;;;;7.00;4.70;;;;;;;8.53;79.09;100960.34;108252;1253;61167;-68
2023/05/05 03:27:16;;;;;;;8.50;4.80;;;;;;;8.50;79.16;100958.86;108511;1252;74916;-68
2023/05/05 03:29:43;;;;;;;9.00;4.40;;;;;;;8.48;79.30;100959.54;108288;1253;69963;-69
2023/05/05 03:32:10;;;;;;;9.30;4.60;;;;;;;8.47;79.34;100960.55;108753;1252;71676;-69
2023/05/05 03:34:37;;;;;;;10.90;4.60;;;;;;;8.45;79.78;100960.72;107892;1253;61302;-68
2023/05/05 03:37:03;;;;;;;9.40;4.40;;;;;;;8.43;79.91;100960.98;108242;1252;61023;-68
2023/05/05 03:39:30;;;;;;;7.10;4.50;;;;;;;8.42;79.74;100963.04;108272;1254;73954;-69
2023/05/05 03:41:59;;;;;;;9.10;5.20;;;;;;;8.41;79.92;100961.73;108523;1253;70940;-69
2023/05/05 03:44:26;;;;;;;8.20;4.60;;;;;;;8.41;79.68;100959.29;108078;1252;72726;-69
2023/05/05 03:46:52;;;;;;;9.30;4.70;;;;;;;8.39;80.12;100960.67;108380;1253;60664;-68
2023/05/05 03:49:19;;;;;;;8.70;4.80;;;;;;;8.38;80.12;100963.02;108418;1252;61112;-69
2023/05/05 03:51:46;;;;;;;10.50;4.50;;;;;;;8.36;80.51;100958.30;108538;1254;73215;-68
2023/05/05 03:54:12;;;;;;;6.90;4.40;;;;;;;8.33;80.44;100956.64;108157;1254;70345;-68
2023/05/05 03:56:39;;;;;;;8.50;5.10;;;;;;;8.32;80.19;100954.60;108054;1252;72887;-70
2023/05/05 03:59:07;;;;;;;7.80;5.00;;;;;;;8.32;80.45;100956.63;108350;1257;59170;-68
2023/05/05 04:01:34;;;;;;;7.50;5.10;;;;;;;8.30;80.60;100956.92;108903;1253;59482;-68
2023/05/05 04:04:01;;;;;;;9.00;4.70;;;;;;;8.29;80.57;100957.30;108409;1254;74504;-69
2023/05/05 04:06:27;;;;;;;9.30;5.30;;;;;;;8.27;81.05;100958.68;108718;1253;71588;-68
2023/05/05 04:08:54;;;;;;;11.30;5.40;;;;;;;8.25;81.21;100954.07;108029;1253;71725;-69
2023/05/05 04:11:21;;;;;;;10.20;5.20;;;;;;;8.25;81.10;100951.19;108342;1254;61276;-69
2023/05/05 04:13:48;;;;;;;7.90;4.90;;;;;;;8.24;81.61;100955.67;108545;1254;59106;-69
2023/05/05 04:16:15;;;;;;;8.40;4.50;;;;;;;8.24;81.66;100953.50;108262;1254;74423;-69
2023/05/05 04:18:42;;;;;;;9.30;4.80;;;;;;;8.23;81.81;100952.38;108555;1254;69517;-69
2023/05/05 04:21:08;;;;;;;9.20;4.60;;;;;;;8.24;82.40;100946.48;108675;1253;71679;-67
2023/05/05 04:23:35;;;;;;;9.60;4.90;;;;;;;8.25;82.15;100945.45;108249;1252;60343;-69
2023/05/05 04:26:02;;;;;;;11.80;4.60;;;;;;;8.28;81.93;100950.09;108290;1254;61288;-69
2023/05/05 04:28:29;;;;;;;7.70;4.60;;;;;;;8.30;82.22;100959.75;108147;1253;74456;-69
2023/05/05 04:30:58;;;;;;;10.10;5.00;;;;;;;8.31;82.64;100966.66;108354;1254;69952;-68
2023/05/05 04:33:24;;;;;;;6.70;4.60;;;;;;;8.35;82.21;100970.52;108403;1254;72664;-68
2023/05/05 04:35:51;;;;;;;9.70;4.90;;;;;;;8.38;82.51;100974.83;108494;1254;59947;-70
2023/05/05 04:38:19;;;;;;;9.00;5.00;;;;;;;8.42;82.41;100975.39;108775;1254;59070;-70
2023/05/05 04:40:46;;;;;;;9.90;5.30;;;;;;;8.48;82.20;100976.37;108155;1253;73824;-71
2023/05/05 04:43:13;;;;;;;10.10;4.60;;;;;;;8.54;81.90;100974.83;108328;1257;69606;-71
2023/05/05 04:45:40;;;;;;;9.50;4.50;;;;;;;8.61;81.86;100972.42;108325;1254;72989;-71
2023/05/05 04:48:06;;;;;;;10.00;4.50;;;;;;;8.67;81.70;100977.02;108337;1253;60208;-69
2023/05/05 04:50:33;;;;;;;8.70;4.50;;;;;;;8.75;81.73;100972.06;108288;1253;59584;-71
2023/05/05 04:52:59;;;;;;;8.10;4.40;;;;;;;8.83;81.46;100959.23;108236;1254;74441;-71
2023/05/05 04:55:26;;;;;;;11.10;4.70;;;;;;;8.87;81.48;100956.67;108467;1254;59452;-71
2023/05/05 04:57:53;;;;;;;8.00;4.40;;;;;;;8.90;81.14;100962.35;109215;1256;72771;-71
2023/05/05 05:00:20;;;;;;;8.20;4.70;;;;;;;8.94;81.25;100967.90;109236;1256;59642;-71
2023/05/05 05:02:47;;;;;;;8.00;4.80;;;;;;;9.01;81.35;100969.56;109226;1253;61292;-71
2023/05/05 05:05:13;;;;;;;9.90;4.60;;;;;;;9.10;81.15;100973.43;108886;1254;74721;-72
2023/05/05 05:07:40;;;;;;;7.50;4.50;;;;;;;9.21;81.00;100974.91;108581;1253;61262;-71
2023/05/05 05:10:07;;;;;;;7.30;4.20;;;;;;;9.33;80.51;100977.83;108148;1253;71481;-71
2023/05/05 05:12:34;;;;;;;8.70;4.20;;;;;;;9.49;80.49;100975.84;108220;1253;61221;-71
2023/05/05 05:15:01;;;;;;;6.50;4.50;;;;;;;9.66;80.03;100962.46;108809;1254;59547;-71
2023/05/05 05:17:29;;;;;;;7.30;4.30;;;;;;;9.83;79.67;100959.88;108518;1254;75559;-71
2023/05/05 05:19:58;;;;;;;6.90;4.10;;;;;;;10.02;78.88;100964.48;108616;1254;69984;-70
2023/05/05 05:22:24;;;;;;;8.50;4.00;;;;;;;10.20;78.22;100963.79;108322;1252;71198;-70
2023/05/05 05:24:51;;;;;;;7.90;4.00;;;;;;;10.35;77.67;100956.48;108270;1252;61322;-69
2023/05/05 05:27:18;;;;;;;9.70;3.90;;;;;;;10.51;77.24;100948.14;108667;1253;60827;-70
2023/05/05 05:29:45;;;;;;;10.00;4.70;;;;;;;10.71;76.79;100951.72;108233;1254;73184;-70
2023/05/05 05:32:11;;;;;;;7.30;3.80;;;;;;;10.89;75.88;100952.67;108327;1254;72276;-71
2023/05/05 05:34:38;;;;;;;8.50;4.20;;;;;;;11.07;75.17;100953.37;108608;1253;72684;-71
2023/05/05 05:37:06;;;;;;;7.90;3.80;;;;;;;11.18;74.23;100951.56;108611;1253;61154;-71
2023/05/05 05:39:33;;;;;;;6.80;3.90;;;;;;;11.24;73.53;100955.64;108578;1254;60074;-71
2023/05/05 05:41:59;;;;;;;6.50;4.10;;;;;;;11.35;73.71;100965.27;108073;1254;73669;-71
2023/05/05 05:44:26;;;;;;;7.10;3.90;;;;;;;11.43;73.13;100957.03;108437;1254;70772;-71
2023/05/05 05:46:53;;;;;;;10.40;3.60;;;;;;;11.48;72.64;100953.15;108676;1254;72444;-71
2023/05/05 05:49:20;;;;;;;8.00;4.10;;;;;;;11.51;72.25;100952.85;108132;1253;61224;-72
2023/05/05 05:51:47;;;;;;;9.80;5.20;;;;;;;11.55;71.81;100958.27;107468;1252;61160;-70
2023/05/05 05:54:14;;;;;;;8.60;3.90;;;;;;;11.57;71.34;100960.77;107849;1255;73501;-71
2023/05/05 05:56:40;;;;;;;6.40;3.60;;;;;;;11.62;71.45;100961.15;108063;1253;69213;-71
2023/05/05 05:59:08;;;;;;;12.10;5.80;;;;;;;11.67;71.69;100953.97;107867;1254;72396;-71
2023/05/05 06:01:35;;;;;;;10.40;4.30;;;;;;;11.77;71.46;100962.45;107299;1257;61934;-72
2023/05/05 06:04:02;;;;;;;7.40;3.70;;;;;;;11.88;71.15;100973.36;107428;1256;61472;-71
2023/05/05 06:06:29;;;;;;;7.10;4.30;;;;;;;11.97;70.43;100975.95;107871;1254;75337;-70
2023/05/05 06:08:56;;;;;;;6.10;4.30;;;;;;;12.11;70.13;100965.91;107912;1254;71102;-71
2023/05/05 06:11:23;;;;;;;8.90;4.60;;;;;;;12.30;69.91;100964.14;107357;1257;71433;-70
2023/05/05 06:13:49;;;;;;;7.90;4.30;;;;;;;12.52;69.33;100963.02;108241;1254;59705;-70
2023/05/05 06:16:16;;;;;;;8.00;4.10;;;;;;;12.74;68.47;100972.40;107546;1259;61797;-70
2023/05/05 06:18:42;;;;;;;7.40;4.10;;;;;;;12.95;67.21;100980.23;107825;1256;73427;-71
2023/05/05 06:21:09;;;;;;;6.80;3.60;;;;;;;13.15;65.95;100976.90;107624;1259;59129;-71
2023/05/05 06:23:36;;;;;;;8.50;4.00;;;;;;;13.32;65.62;100979.92;107251;1254;61789;-69
2023/05/05 06:26:02;;;;;;;7.10;4.60;;;;;;;13.52;64.70;100988.86;107468;1254;62328;-70
2023/05/05 06:28:29;;;;;;;7.60;4.00;;;;;;;13.70;64.20;100991.13;107594;1254;60231;-71
2023/05/05 06:30:56;;;;;;;6.20;3.60;;;;;;;13.86;63.10;100992.39;108495;1254;73122;-71
2023/05/05 06:33:22;;;;;;;7.50;3.80;;;;;;;13.93;61.32;100992.38;107537;1254;59228;-71
2023/05/05 06:35:51;;;;;;;10.20;4.40;;;;;;;13.98;61.36;100991.80;107652;1254;61345;-71
2023/05/05 06:38:17;;;;;;;7.60;3.90;;;;;;;14.03;61.22;100981.98;107689;1254;60261;-71
2023/05/05 06:40:47;;;;;;;7.30;4.00;;;;;;;14.16;61.42;100978.17;107703;1259;59284;-70
2023/05/05 06:43:14;;;;;;;8.70;4.20;;;;;;;14.27;60.88;100979.54;107691;1257;73480;-71
2023/05/05 06:45:41;;;;;;;7.90;4.20;;;;;;;14.35;59.79;100990.52;107445;1254;71213;-71
2023/05/05 06:48:09;;;;;;;6.10;3.70;;;;;;;14.37;60.11;100992.64;108140;1259;71285;-70
2023/05/05 06:50:35;;;;;;;42.30;27.40;;;;;;;14.33;59.61;100987.66;107709;1254;59415;-70
2023/05/05 06:53:02;;;;;;;8.60;4.30;;;;;;;14.29;59.76;100980.74;107849;1257;60365;-72
2023/05/05 06:55:30;;;;;;;7.90;4.40;;;;;;;14.29;60.08;100973.64;107214;1254;61263;-71
2023/05/05 06:57:57;;;;;;;11.10;5.10;;;;;;;14.32;60.08;100973.34;107540;1255;71162;-71
2023/05/05 07:00:23;;;;;;;10.40;5.40;;;;;;;14.33;60.42;100974.65;107856;1254;72359;-71
2023/05/05 07:02:50;;;;;;;9.60;6.20;;;;;;;14.40;60.87;100976.11;107972;1254;60894;-72
2023/05/05 07:05:17;;;;;;;7.40;4.50;;;;;;;14.45;60.29;100977.13;107702;1257;59494;-71
2023/05/05 07:07:54;;;;;;;9.30;5.40;;;;;;;14.46;59.98;100975.58;108386;1254;74735;-71
2023/05/05 07:10:22;;;;;;;7.90;4.20;;;;;;;14.45;59.90;100974.70;107678;1262;69633;-70
2023/05/05 07:12:49;;;;;;;7.00;4.60;;;;;;;14.41;60.03;100973.41;107863;1256;72439;-70
2023/05/05 07:15:16;;;;;;;7.90;4.50;;;;;;;14.42;59.93;100973.50;107497;1257;61330;-72
2023/05/05 07:17:55;;;;;;;6.60;4.70;;;;;;;14.42;60.08;100968.12;107601;1254;61263;-71
2023/05/05 07:20:22;;;;;;;8.10;4.70;;;;;;;14.44;60.01;100966.08;107548;1261;74705;-71
2023/05/05 07:22:48;;;;;;;7.10;4.10;;;;;;;14.46;60.27;100965.64;108212;1254;69934;-71
2023/05/05 07:25:15;;;;;;;8.60;5.00;;;;;;;14.48;60.37;100966.23;107837;1254;72721;-70
2023/05/05 07:27:42;;;;;;;7.40;4.60;;;;;;;14.54;60.44;100963.82;107834;1254;61276;-69
2023/05/05 07:30:09;;;;;;;8.20;4.40;;;;;;;14.59;60.64;100962.58;107892;1257;59498;-72
2023/05/05 07:32:41;;;;;;;9.50;4.30;;;;;;;14.65;60.38;100959.70;107682;1255;75992;-71
2023/05/05 07:35:09;;;;;;;7.20;4.20;;;;;;;14.78;60.56;100961.36;107706;1257;69495;-71
2023/05/05 07:37:35;;;;;;;8.60;4.80;;;;;;;14.98;60.66;100964.36;107521;1258;71576;-71
2023/05/05 07:40:02;;;;;;;9.40;4.80;;;;;;;15.26;60.19;100973.14;107727;1254;60467;-72
2023/05/05 07:42:29;;;;;;;6.80;4.10;;;;;;;15.50;59.46;100972.78;107792;1259;61178;-72
2023/05/05 07:44:55;;;;;;;7.80;4.00;;;;;;;15.74;58.46;100970.23;107946;1254;73769;-70
2023/05/05 07:47:22;;;;;;;8.40;4.40;;;;;;;16.02;58.22;100963.14;107991;1254;71227;-72
2023/05/05 07:49:49;;;;;;;9.20;4.80;;;;;;;16.21;56.59;100966.11;107202;1260;72074;-71
2023/05/05 07:52:16;;;;;;;6.20;4.10;;;;;;;16.35;56.24;100965.87;107622;1259;61148;-71
2023/05/05 07:54:44;;;;;;;7.30;4.00;;;;;;;16.56;56.29;100959.71;107758;1256;61216;-71
2023/05/05 07:57:10;;;;;;;7.70;4.10;;;;;;;16.73;55.66;100956.71;107550;1259;73288;-71
2023/05/05 07:59:39;;;;;;;7.80;4.30;;;;;;;16.85;55.08;100957.44;107607;1260;69684;-71
2023/05/05 08:02:06;;;;;;;10.00;4.10;;;;;;;16.92;55.00;100955.79;108152;1256;73283;-71
2023/05/05 08:04:33;;;;;;;7.70;4.40;;;;;;;16.99;55.00;100962.12;108179;1258;59247;-72
2023/05/05 08:06:59;;;;;;;6.80;4.00;;;;;;;17.07;54.76;100969.14;108212;1254;63000;-72
2023/05/05 08:09:26;;;;;;;9.50;4.70;;;;;;;17.16;54.14;100976.80;107232;1259;73337;-72
2023/05/05 08:11:53;;;;;;;8.10;3.80;;;;;;;17.23;53.92;100977.44;107583;1257;71841;-72
2023/05/05 08:14:19;;;;;;;6.10;4.20;;;;;;;17.28;53.40;100983.48;108087;1257;72388;-72
2023/05/05 08:16:46;;;;;;;7.80;4.10;;;;;;;17.31;53.70;100991.66;107982;1257;60635;-72
2023/05/05 08:19:12;;;;;;;7.80;4.50;;;;;;;17.46;53.53;100997.43;107478;1254;61544;-72
2023/05/05 08:21:55;;;;;;;8.40;4.70;;;;;;;17.64;52.93;100992.98;108323;1254;74683;-71
2023/05/05 08:24:21;;;;;;;8.20;4.00;;;;;;;17.76;52.49;100992.25;108119;1254;70553;-73
2023/05/05 08:26:48;;;;;;;10.10;4.60;;;;;;;17.93;52.22;100995.93;107829;1256;71604;-73
2023/05/05 08:29:15;;;;;;;9.70;4.50;;;;;;;18.20;52.15;101002.44;107266;1254;61901;-74
2023/05/05 08:31:43;;;;;;;11.10;4.40;;;;;;;18.44;50.73;101006.36;107699;1255;59541;-72
2023/05/05 08:34:10;;;;;;;7.70;4.10;;;;;;;18.50;50.27;101017.16;107880;1255;73250;-71
2023/05/05 08:36:36;;;;;;;13.50;8.10;;;;;;;18.60;49.73;101020.51;107915;1258;61289;-71
2023/05/05 08:39:03;;;;;;;8.70;5.00;;;;;;;18.66;48.96;101024.75;108019;1257;72556;-70
2023/05/05 08:41:30;;;;;;;6.10;4.40;;;;;;;18.78;49.26;101032.61;107544;1260;61279;-72
2023/05/05 08:43:57;;;;;;;7.70;4.30;;;;;;;18.90;49.13;101038.55;107637;1254;60147;-71
2023/05/05 08:46:27;;;;;;;7.90;4.80;;;;;;;18.92;47.78;101041.98;108012;1254;74509;-71
2023/05/05 08:48:54;;;;;;;8.30;4.90;;;;;;;19.03;47.77;101041.89;107895;1254;69997;-71
2023/05/05 08:51:22;;;;;;;8.20;4.30;;;;;;;19.16;48.27;101035.75;107880;1256;71739;-72
2023/05/05 08:54:02;;;;;;;9.80;4.40;;;;;;;19.36;47.81;101026.83;108054;1259;61266;-71
2023/05/05 08:56:36;;;;;;;7.60;4.60;;;;;;;19.68;47.45;101026.70;108799;1260;61232;-72
2023/05/05 08:59:03;;;;;;;7.50;4.50;;;;;;;19.97;47.15;101025.44;108296;1260;73698;-71
2023/05/05 09:01:32;;;;;;;8.70;4.50;;;;;;;20.21;46.42;101014.42;108627;1258;72473;-72
2023/05/05 09:03:59;;;;;;;9.60;4.80;;;;;;;20.39;45.65;101004.90;108357;1259;72445;-72
2023/05/05 09:06:26;;;;;;;7.10;4.40;;;;;;;20.48;45.22;100994.73;107998;1255;61324;-71
2023/05/05 09:08:53;;;;;;;7.80;4.40;;;;;;;20.52;44.86;100985.17;107797;1254;59092;-73
2023/05/05 09:11:21;;;;;;;8.70;4.60;;;;;;;20.47;44.68;100982.67;107564;1257;74086;-72
2023/05/05 09:13:48;;;;;;;7.90;4.40;;;;;;;20.51;44.79;100987.30;108095;1254;71216;-71
2023/05/05 09:16:15;;;;;;;7.60;4.80;;;;;;;20.64;45.27;100989.67;108273;1259;72367;-71
2023/05/05 09:18:41;;;;;;;9.10;4.20;;;;;;;20.77;44.84;100985.30;108558;1254;61346;-71
2023/05/05 09:21:23;;;;;;;9.00;4.70;;;;;;;20.86;44.59;100982.35;108165;1254;61160;-71
2023/05/05 09:24:07;;;;;;;6.70;4.00;;;;;;;20.99;44.98;100978.70;107631;1262;75073;-74
2023/05/05 09:26:37;;;;;;;6.50;4.30;;;;;;;21.06;44.51;100974.41;107546;1261;69917;-72
2023/05/05 09:29:04;;;;;;;7.50;4.60;;;;;;;21.08;44.33;100973.17;108009;1258;72865;-72
2023/05/05 09:31:31;;;;;;;7.40;4.30;;;;;;;21.05;44.06;100972.57;107944;1254;61145;-72
2023/05/05 09:34:03;;;;;;;10.10;4.80;;;;;;;21.16;44.21;100971.11;108101;1254;61068;-73
2023/05/05 09:36:47;;;;;;;5.80;3.90;;;;;;;21.32;44.16;100965.92;108020;1254;74624;-74
2023/05/05 09:39:16;;;;;;;9.80;4.20;;;;;;;21.39;43.08;100971.09;108238;1254;70421;-73
2023/05/05 09:41:44;;;;;;;8.00;4.40;;;;;;;21.44;43.15;100969.97;107489;1254;72404;-73
2023/05/05 09:44:11;;;;;;;8.40;4.00;;;;;;;21.48;42.57;100972.25;107346;1254;59993;-74
2023/05/05 09:46:49;;;;;;;6.10;4.10;;;;;;;21.42;42.71;100968.89;107324;1257;61361;-73
2023/05/05 09:49:25;;;;;;;8.40;4.60;;;;;;;21.46;43.22;100968.02;108225;1254;72887;-73
2023/05/05 09:51:53;;;;;;;7.60;4.20;;;;;;;21.50;43.20;100967.16;108564;1256;71374;-72
2023/05/05 09:54:31;;;;;;;6.70;4.20;;;;;;;21.47;43.60;100978.70;107958;1260;72675;-73
2023/05/05 09:56:58;;;;;;;6.30;3.90;;;;;;;21.44;43.34;100987.44;107900;1254;61634;-72
2023/05/05 09:59:24;;;;;;;7.10;4.40;;;;;;;21.31;42.65;100990.72;107807;1254;59435;-74
2023/05/05 10:01:51;;;;;;;6.80;4.60;;;;;;;21.26;43.29;100985.34;107953;1254;73730;-73
2023/05/05 10:04:28;;;;;;;6.30;4.60;;;;;;;21.22;43.58;100983.48;107514;1256;71032;-74
2023/05/05 10:06:55;;;;;;;7.00;4.30;;;;;;;21.28;43.99;100986.73;107731;1254;71755;-74
2023/05/05 10:09:23;;;;;;;9.10;4.50;;;;;;;21.32;43.39;100989.96;108347;1260;61350;-74
2023/05/05 10:11:50;;;;;;;7.20;4.40;;;;;;;21.44;43.74;100992.58;108438;1257;60084;-73
2023/05/05 10:14:18;;;;;;;7.20;4.60;;;;;;;21.51;43.00;100991.54;107762;1256;74683;-73
2023/05/05 10:16:51;;;;;;;5.70;4.20;;;;;;;21.57;42.80;100981.94;107721;1255;71218;-73
2023/05/05 10:19:20;;;;;;;7.00;4.60;;;;;;;21.66;42.65;100982.41;107617;1254;70563;-74
2023/05/05 10:22:01;;;;;;;6.70;4.50;;;;;;;21.85;42.86;100979.63;107834;1254;61678;-74
2023/05/05 10:24:34;;;;;;;7.70;4.60;;;;;;;22.10;42.74;100980.06;107870;1256;59416;-74
2023/05/05 10:27:06;;;;;;;6.20;3.80;;;;;;;22.32;41.72;100980.66;108217;1254;72565;-75
2023/05/05 10:29:44;;;;;;;7.80;4.40;;;;;;;22.44;40.67;100977.17;108291;1254;71536;-72
2023/05/05 10:32:20;;;;;;;6.30;3.80;;;;;;;22.65;41.59;100967.15;107832;1258;71951;-74
2023/05/05 10:34:58;;;;;;;7.60;3.90;;;;;;;22.76;40.51;100964.75;107497;1254;61189;-74
2023/05/05 10:37:26;;;;;;;6.30;4.10;;;;;;;22.91;39.63;100959.88;107523;1254;61352;-74
2023/05/05 10:39:54;;;;;;;9.00;4.60;;;;;;;23.06;40.02;100953.93;107755;1255;74068;-72
2023/05/05 10:42:24;;;;;;;7.70;4.60;;;;;;;23.17;40.03;100959.38;108230;1254;69954;-72
2023/05/05 10:44:52;;;;;;;10.10;4.60;;;;;;;23.15;39.47;100965.89;108076;1257;72396;-74
2023/05/05 10:47:20;;;;;;;5.90;4.20;;;;;;;23.17;39.37;100971.92;107931;1256;61206;-74
2023/05/05 10:49:56;;;;;;;5.30;3.90;;;;;;;23.04;38.80;100970.61;107930;1254;59820;-73
2023/05/05 10:52:34;;;;;;;8.10;4.40;;;;;;;22.91;38.98;100966.25;108192;1254;73471;-74
2023/05/05 10:55:00;;;;;;;7.30;4.50;;;;;;;22.93;39.51;100962.02;107847;1254;69780;-74
2023/05/05 10:57:28;;;;;;;9.10;4.60;;;;;;;23.15;40.35;100956.20;107909;1254;72415;-73
2023/05/05 10:59:54;;;;;;;6.30;4.30;;;;;;;23.30;39.24;100955.66;108010;1256;59333;-73
2023/05/05 11:02:22;;;;;;;4.70;3.40;;;;;;;23.28;38.90;100957.87;108239;1256;61173;-73
2023/05/05 11:05:08;;;;;;;6.30;4.50;;;;;;;23.09;39.03;100963.55;108160;1254;73496;-72
2023/05/05 11:07:36;;;;;;;6.30;4.20;;;;;;;23.08;39.61;100958.23;107997;1254;70029;-73
2023/05/05 11:10:05;;;;;;;7.30;4.60;;;;;;;23.05;39.61;100957.27;107646;1254;71480;-74
2023/05/05 11:12:58;;;;;;;6.00;3.40;;;;;;;22.99;39.89;100962.42;107994;1254;61208;-73
2023/05/05 11:15:25;;;;;;;7.90;4.30;;;;;;;22.73;39.57;100962.40;107999;1254;59911;-73
2023/05/05 11:18:05;;;;;;;6.50;4.20;;;;;;;22.80;40.53;100962.23;108076;1254;74958;-73
2023/05/05 11:20:39;;;;;;;8.00;4.20;;;;;;;23.02;40.46;100961.70;108185;1254;70328;-73
2023/05/05 11:23:06;;;;;;;7.00;4.40;;;;;;;23.22;40.57;100956.98;107825;1256;71931;-74
2023/05/05 11:25:33;;;;;;;7.40;4.50;;;;;;;23.27;40.26;100952.48;108248;1254;61231;-74
2023/05/05 11:28:04;;;;;;;7.30;4.90;;;;;;;23.10;39.99;100951.38;107513;1254;59243;-74
2023/05/05 11:30:31;;;;;;;5.10;4.10;;;;;;;23.03;40.57;100956.44;107948;1257;73552;-72